createdAt,value
2022-12-09T00:01:23.176Z,18.83
2022-12-09T00:04:25.868Z,19.08
2022-12-09T00:07:27.950Z,17.83
2022-12-09T00:10:30.265Z,18.20
2022-12-09T00:13:32.443Z,18.55
2022-12-09T00:16:34.645Z,33.47
2022-12-09T00:19:36.750Z,30.80
2022-12-09T00:22:38.887Z,23.98
2022-12-09T00:25:40.871Z,18.27
2022-12-09T00:28:43.735Z,102.65
2022-12-09T00:31:45.917Z,17.75
2022-12-09T00:34:49.048Z,17.70
2022-12-09T00:37:51.038Z,17.63
2022-12-09T00:40:53.349Z,16.08
2022-12-09T00:43:55.834Z,27.48
2022-12-09T00:46:57.987Z,21.20
2022-12-09T00:50:00.880Z,14.35
2022-12-09T00:53:02.971Z,14.98
2022-12-09T00:56:05.965Z,12.45
2022-12-09T00:59:08.884Z,14.05
2022-12-09T01:02:10.938Z,12.30
2022-12-09T01:05:13.506Z,13.45
2022-12-09T01:08:16.486Z,14.38
2022-12-09T01:11:25.318Z,15.02
2022-12-09T01:14:27.401Z,14.17
2022-12-09T01:17:29.583Z,14.80
2022-12-09T01:20:32.074Z,14.90
2022-12-09T01:23:34.160Z,14.60
2022-12-09T01:26:36.986Z,14.73
2022-12-09T01:29:38.980Z,17.55
2022-12-09T01:32:42.239Z,17.67
2022-12-09T01:35:44.283Z,29.58
2022-12-09T01:38:47.393Z,54.13
2022-12-09T01:41:51.450Z,52.47
2022-12-09T01:45:30.375Z,36.30
2022-12-09T01:48:36.589Z,18.35
2022-12-09T01:51:39.042Z,19.58
2022-12-09T01:54:44.915Z,27.42
2022-12-09T01:57:47.771Z,25.63
2022-12-09T02:00:50.344Z,21.63
2022-12-09T02:03:52.636Z,19.83
2022-12-09T02:06:56.245Z,59.20
2022-12-09T02:09:58.663Z,21.25
2022-12-09T02:13:34.449Z,39.05
2022-12-09T02:16:46.286Z,30.35
2022-12-09T02:19:56.080Z,19.48
2022-12-09T02:23:34.439Z,21.45
2022-12-09T02:26:55.246Z,20.33
2022-12-09T02:30:07.151Z,20.73
2022-12-09T02:33:15.619Z,20.23
2022-12-09T02:36:20.420Z,18.50
2022-12-09T02:39:36.610Z,18.38
2022-12-09T02:42:40.014Z,19.05
2022-12-09T02:45:44.048Z,18.52
2022-12-09T02:48:52.511Z,24.83
2022-12-09T02:51:55.983Z,20.88
2022-12-09T02:55:01.579Z,22.13
2022-12-09T02:58:04.069Z,20.63
2022-12-09T03:01:18.970Z,20.63
2022-12-09T03:04:24.182Z,20.42
2022-12-09T03:07:46.359Z,21.38
2022-12-09T03:11:08.958Z,19.55
2022-12-09T03:14:19.585Z,20.67
2022-12-09T03:17:33.333Z,20.15
2022-12-09T03:20:40.128Z,20.83
2022-12-09T03:23:46.789Z,22.13
2022-12-09T03:26:50.988Z,19.17
2022-12-09T03:29:54.088Z,18.30
2022-12-09T03:32:58.696Z,19.58
2022-12-09T03:36:06.402Z,17.90
2022-12-09T03:39:15.068Z,18.58
2022-12-09T03:42:23.261Z,20.73
2022-12-09T03:45:26.765Z,17.48
2022-12-09T03:48:29.143Z,17.63
2022-12-09T03:51:41.588Z,17.23
2022-12-09T03:54:46.132Z,20.25
2022-12-09T03:57:51.110Z,17.88
2022-12-09T04:00:53.526Z,17.35
2022-12-09T04:03:57.440Z,18.40
2022-12-09T04:07:01.041Z,17.75
2022-12-09T04:10:04.788Z,17.77
2022-12-09T04:13:07.387Z,15.52
2022-12-09T04:16:10.183Z,16.80
2022-12-09T04:19:12.960Z,15.70
2022-12-09T04:22:15.640Z,15.75
2022-12-09T04:25:18.120Z,13.63
2022-12-09T04:28:20.436Z,15.73
2022-12-09T04:31:22.961Z,16.65
2022-12-09T04:34:25.265Z,15.82
2022-12-09T04:37:27.478Z,14.30
2022-12-09T04:40:29.676Z,13.38
2022-12-09T04:43:31.754Z,13.93
2022-12-09T04:46:34.188Z,17.67
2022-12-09T04:49:36.897Z,26.83
2022-12-09T04:52:39.333Z,37.67
2022-12-09T04:55:41.461Z,44.20
2022-12-09T04:58:44.970Z,34.75
2022-12-09T05:01:47.265Z,22.08
2022-12-09T05:04:50.193Z,20.55
2022-12-09T05:07:52.550Z,21.00
2022-12-09T05:11:02.402Z,18.63
2022-12-09T05:14:04.933Z,22.13
2022-12-09T05:17:07.578Z,15.45
2022-12-09T05:20:10.689Z,15.30
2022-12-09T05:23:13.164Z,14.18
2022-12-09T05:26:18.748Z,15.25
2022-12-09T05:29:23.117Z,14.77
2022-12-09T05:32:29.193Z,14.18
2022-12-09T05:35:32.146Z,14.50
2022-12-09T05:38:35.401Z,15.30
2022-12-09T05:41:37.896Z,14.73
2022-12-09T05:44:40.075Z,15.70
2022-12-09T05:47:42.548Z,16.20
2022-12-09T05:50:45.042Z,20.80
2022-12-09T05:53:47.546Z,13.50
2022-12-09T05:56:49.837Z,15.90
2022-12-09T05:59:52.421Z,15.57
2022-12-09T06:02:55.152Z,16.63
2022-12-09T06:05:57.747Z,14.13
2022-12-09T06:09:01.985Z,15.15
2022-12-09T06:12:04.443Z,13.73
2022-12-09T06:15:10.371Z,14.68
2022-12-09T06:18:13.124Z,16.95
2022-12-09T06:21:17.044Z,18.77
2022-12-09T06:24:19.467Z,19.02
2022-12-09T06:27:21.792Z,14.48
2022-12-09T06:30:24.106Z,15.27
2022-12-09T06:33:53.064Z,13.77
2022-12-09T06:36:48.639Z,14.85
2022-12-09T06:39:50.905Z,13.93
2022-12-09T06:42:53.255Z,12.75
2022-12-09T06:45:55.428Z,13.02
2022-12-09T06:48:57.668Z,14.25
2022-12-09T06:52:00.094Z,13.80
2022-12-09T06:55:03.199Z,13.48
2022-12-09T06:58:06.013Z,13.13
2022-12-09T07:01:15.554Z,13.30
2022-12-09T07:04:18.184Z,13.55
2022-12-09T07:07:21.273Z,12.73
2022-12-09T07:10:24.427Z,14.00
2022-12-09T07:13:27.010Z,13.70
2022-12-09T07:16:30.170Z,13.23
2022-12-09T07:19:33.671Z,13.07
2022-12-09T07:22:37.048Z,13.10
2022-12-09T07:25:39.564Z,12.68
2022-12-09T07:28:42.994Z,13.65
2022-12-09T07:31:46.191Z,15.10
2022-12-09T07:34:48.706Z,14.23
2022-12-09T07:37:51.037Z,15.10
2022-12-09T07:40:53.515Z,15.05
2022-12-09T07:43:56.598Z,14.82
2022-12-09T07:46:59.289Z,14.13
2022-12-09T07:50:06.335Z,14.68
2022-12-09T07:53:09.304Z,15.35
2022-12-09T07:56:14.939Z,20.52
2022-12-09T07:59:17.741Z,18.33
2022-12-09T08:02:20.214Z,21.45
2022-12-09T08:05:22.755Z,39.95
2022-12-09T08:08:25.301Z,21.75
2022-12-09T08:11:30.174Z,20.85
2022-12-09T08:14:32.438Z,23.30
2022-12-09T08:17:34.952Z,21.13
2022-12-09T08:20:37.893Z,23.15
2022-12-09T08:23:40.437Z,19.25
2022-12-09T08:26:43.255Z,19.50
2022-12-09T08:29:45.510Z,18.92
2022-12-09T08:32:47.869Z,23.92
2022-12-09T08:35:50.686Z,26.58
2022-12-09T08:38:53.069Z,19.67
2022-12-09T08:41:55.193Z,19.27
2022-12-09T08:45:01.989Z,20.65
2022-12-09T08:48:07.190Z,19.55
2022-12-09T08:51:11.415Z,22.80
2022-12-09T08:54:13.945Z,23.55
2022-12-09T08:57:16.124Z,22.48
2022-12-09T09:00:19.681Z,31.80
2022-12-09T09:03:22.012Z,24.52
2022-12-09T09:06:25.047Z,25.10
2022-12-09T09:09:27.608Z,26.63
2022-12-09T09:12:31.129Z,25.52
2022-12-09T09:15:33.731Z,25.35
2022-12-09T09:18:37.052Z,26.63
2022-12-09T09:21:40.068Z,27.25
2022-12-09T09:24:43.010Z,26.60
2022-12-09T09:27:45.311Z,31.63
2022-12-09T09:30:50.470Z,30.65
2022-12-09T09:33:53.302Z,30.42
2022-12-09T09:36:56.835Z,29.67
2022-12-09T09:39:59.086Z,30.27
2022-12-09T09:43:02.787Z,29.98
2022-12-09T09:46:06.199Z,38.95
2022-12-09T09:49:22.845Z,40.10
2022-12-09T09:52:27.701Z,35.30
2022-12-09T09:55:40.153Z,36.40
2022-12-09T09:58:53.435Z,32.28
2022-12-09T10:02:19.521Z,30.98
2022-12-09T10:05:38.411Z,28.95
2022-12-09T10:08:50.655Z,29.05
2022-12-09T10:12:10.948Z,37.75
2022-12-09T10:15:16.280Z,26.60
2022-12-09T10:18:29.111Z,26.33
2022-12-09T10:21:33.448Z,28.13
2022-12-09T10:24:40.117Z,25.65
2022-12-09T10:27:49.285Z,25.88
2022-12-09T10:30:54.534Z,24.87
2022-12-09T10:33:57.690Z,24.95
2022-12-09T10:36:59.885Z,24.35
2022-12-09T10:40:32.883Z,24.17
2022-12-09T10:43:44.186Z,23.50
2022-12-09T10:46:47.844Z,24.92
2022-12-09T10:49:52.688Z,25.55
2022-12-09T10:52:56.119Z,25.27
2022-12-09T10:56:01.068Z,27.90
2022-12-09T10:59:24.858Z,32.65
2022-12-09T11:02:29.338Z,30.08
2022-12-09T11:05:34.779Z,26.85
2022-12-09T11:08:38.301Z,29.52
2022-12-09T11:11:49.621Z,28.08
2022-12-09T11:15:04.452Z,39.30
2022-12-09T11:18:33.018Z,31.48
2022-12-09T11:21:37.129Z,27.63
2022-12-09T11:24:40.842Z,25.33
2022-12-09T11:27:48.765Z,33.55
2022-12-09T11:31:35.363Z,28.67
2022-12-09T11:34:37.935Z,27.90
2022-12-09T11:37:40.561Z,36.75
2022-12-09T11:40:43.224Z,35.05
2022-12-09T11:43:55.511Z,31.35
2022-12-09T11:47:10.688Z,29.23
2022-12-09T11:50:17.193Z,32.45
2022-12-09T11:53:33.137Z,29.65
2022-12-09T11:56:36.851Z,27.67
2022-12-09T11:59:49.763Z,30.13
2022-12-09T12:03:14.237Z,28.10
2022-12-09T12:06:29.299Z,29.98
2022-12-09T12:09:42.140Z,29.20
2022-12-09T12:12:53.148Z,72.63
2022-12-09T12:16:10.201Z,41.97
2022-12-09T12:19:18.249Z,34.00
2022-12-09T12:22:57.265Z,30.00
2022-12-09T12:26:11.299Z,33.72
2022-12-09T12:29:50.307Z,31.45
2022-12-09T12:36:51.263Z,58.78
2022-12-09T12:40:26.731Z,42.45
2022-12-09T12:44:16.939Z,45.42
2022-12-09T12:47:26.543Z,31.40
2022-12-09T12:50:55.385Z,35.08
2022-12-09T12:54:09.214Z,36.50
2022-12-09T12:57:36.681Z,35.67
2022-12-09T13:00:53.895Z,41.22
2022-12-09T13:04:15.071Z,40.80
2022-12-09T13:07:35.733Z,39.17
2022-12-09T13:10:45.601Z,33.80
2022-12-09T13:14:03.473Z,34.45
2022-12-09T13:17:11.317Z,40.95
2022-12-09T13:20:20.293Z,37.22
2022-12-09T13:23:43.870Z,36.33
2022-12-09T13:27:04.313Z,38.65
2022-12-09T13:30:18.266Z,33.83
2022-12-09T13:33:33.534Z,34.45
2022-12-09T13:36:42.388Z,33.88
2022-12-09T13:39:50.355Z,33.07
2022-12-09T13:43:06.572Z,34.20
2022-12-09T13:46:08.831Z,32.75
2022-12-09T13:49:16.977Z,32.25
2022-12-09T13:52:44.827Z,31.10
2022-12-09T13:56:01.922Z,33.28
2022-12-09T13:59:28.846Z,31.70
2022-12-09T14:02:50.970Z,39.42
2022-12-09T14:05:56.112Z,30.60
2022-12-09T14:09:04.317Z,29.85
2022-12-09T14:12:11.692Z,31.20
2022-12-09T14:15:25.872Z,35.75
2022-12-09T14:18:33.281Z,35.28
2022-12-09T14:21:35.343Z,71.95
2022-12-09T14:24:38.034Z,38.42
2022-12-09T14:28:00.105Z,37.17
2022-12-09T14:31:08.396Z,34.13
2022-12-09T14:34:31.112Z,35.85
2022-12-09T14:37:45.136Z,36.55
2022-12-09T14:40:51.896Z,31.17
2022-12-09T14:44:06.900Z,31.50
2022-12-09T14:47:27.190Z,31.48
2022-12-09T14:50:29.733Z,29.98
2022-12-09T14:53:35.525Z,29.23
2022-12-09T14:56:38.297Z,28.70
2022-12-09T14:59:51.070Z,27.75
2022-12-09T15:03:30.088Z,26.75
2022-12-09T15:06:20.721Z,28.83
2022-12-09T15:09:23.263Z,33.25
2022-12-09T15:12:28.942Z,29.10
2022-12-09T15:15:40.625Z,28.83
2022-12-09T15:18:44.989Z,34.53
2022-12-09T15:21:50.260Z,30.38
2022-12-09T15:24:53.634Z,30.98
2022-12-09T15:28:00.053Z,30.42
2022-12-09T15:31:05.930Z,44.70
2022-12-09T15:34:18.416Z,60.08
2022-12-09T15:37:29.142Z,38.40
2022-12-09T15:40:34.176Z,47.45
2022-12-09T15:43:38.353Z,36.30
2022-12-09T15:46:44.446Z,33.22
2022-12-09T15:49:54.259Z,33.80
2022-12-09T15:52:57.129Z,35.63
2022-12-09T15:56:08.041Z,32.88
2022-12-09T15:59:33.796Z,35.10
2022-12-09T16:02:39.890Z,34.50
2022-12-09T16:05:42.888Z,34.13
2022-12-09T16:08:45.539Z,32.58
2022-12-09T16:11:53.761Z,35.78
2022-12-09T16:14:56.738Z,35.33
2022-12-09T16:18:03.979Z,36.45
2022-12-09T16:21:15.504Z,42.63
2022-12-09T16:24:18.460Z,59.78
2022-12-09T16:27:30.072Z,37.17
2022-12-09T16:30:44.338Z,43.78
2022-12-09T16:33:49.744Z,36.83
2022-12-09T16:36:56.963Z,37.22
2022-12-09T16:40:00.621Z,43.25
2022-12-09T16:43:22.393Z,34.13
2022-12-09T16:46:37.377Z,35.30
2022-12-09T16:49:44.184Z,34.78
2022-12-09T16:52:47.637Z,37.78
2022-12-09T16:55:54.130Z,36.85
2022-12-09T16:58:59.909Z,36.97
2022-12-09T17:02:03.015Z,35.47
2022-12-09T17:05:07.080Z,34.97
2022-12-09T17:08:11.146Z,35.47
2022-12-09T17:11:15.025Z,36.13
2022-12-09T17:14:18.438Z,34.13
2022-12-09T17:17:22.013Z,33.45
2022-12-09T17:20:26.414Z,32.42
2022-12-09T17:23:32.304Z,31.88
2022-12-09T17:26:39.268Z,32.13
2022-12-09T17:29:46.102Z,33.35
2022-12-09T17:32:49.674Z,34.63
2022-12-09T17:35:53.162Z,31.65
2022-12-09T17:38:56.764Z,36.15
2022-12-09T17:42:00.295Z,34.08
2022-12-09T17:45:04.037Z,41.28
2022-12-09T17:48:16.575Z,44.33
2022-12-09T17:51:19.221Z,41.85
2022-12-09T17:54:21.620Z,47.00
2022-12-09T17:57:23.806Z,48.67
2022-12-09T18:00:26.304Z,44.47
2022-12-09T18:03:54.373Z,39.75
2022-12-09T18:06:52.370Z,36.67
2022-12-09T18:09:54.899Z,32.67
2022-12-09T18:12:57.515Z,33.40
2022-12-09T18:16:00.749Z,37.45
2022-12-09T18:19:10.170Z,48.85
2022-12-09T18:22:12.868Z,37.47
2022-12-09T18:25:15.451Z,42.42
2022-12-09T18:28:18.924Z,35.13
2022-12-09T18:31:22.079Z,34.53
2022-12-09T18:34:28.702Z,35.25
2022-12-09T18:37:32.589Z,35.10
2022-12-09T18:40:59.976Z,35.00
2022-12-09T18:44:05.621Z,34.60
2022-12-09T18:47:09.706Z,37.80
2022-12-09T18:50:12.284Z,40.08
2022-12-09T18:53:14.733Z,34.38
2022-12-09T18:56:18.410Z,122.25
2022-12-09T18:59:23.162Z,46.40
2022-12-09T19:02:25.931Z,36.80
2022-12-09T19:05:30.498Z,39.65
2022-12-09T19:08:33.431Z,37.17
2022-12-09T19:11:39.864Z,37.55
2022-12-09T19:14:42.939Z,38.10
2022-12-09T19:17:47.013Z,39.13
2022-12-09T19:20:50.033Z,46.10
2022-12-09T19:23:53.625Z,47.45
2022-12-09T19:26:58.270Z,51.05
2022-12-09T19:30:01.243Z,45.40
2022-12-09T19:33:04.411Z,43.92
2022-12-09T19:36:08.169Z,43.38
2022-12-09T19:39:14.182Z,33.53
2022-12-09T19:42:17.196Z,34.45
2022-12-09T19:45:20.719Z,31.30
2022-12-09T19:48:24.419Z,30.60
2022-12-09T19:51:28.236Z,29.90
2022-12-09T19:54:30.996Z,30.30
2022-12-09T19:57:33.870Z,30.67
2022-12-09T20:00:41.612Z,30.55
2022-12-09T20:03:47.882Z,29.90
2022-12-09T20:06:50.803Z,28.17
2022-12-09T20:09:53.965Z,27.77
2022-12-09T20:12:57.000Z,31.40
2022-12-09T20:16:05.258Z,31.67
2022-12-09T20:19:10.542Z,31.45
2022-12-09T20:22:14.054Z,30.77
2022-12-09T20:25:16.840Z,30.08
2022-12-09T20:28:19.206Z,29.33
2022-12-09T20:31:31.362Z,30.00
2022-12-09T20:34:34.744Z,28.80
2022-12-09T20:37:37.688Z,30.20
2022-12-09T20:40:40.990Z,30.00
2022-12-09T20:43:45.848Z,29.42
2022-12-09T20:46:52.555Z,31.48
2022-12-09T20:49:55.983Z,31.10
2022-12-09T20:52:58.778Z,31.08
2022-12-09T20:56:04.093Z,31.30
2022-12-09T20:59:07.244Z,33.30
2022-12-09T21:02:20.001Z,31.38
2022-12-09T21:05:22.241Z,33.58
2022-12-09T21:08:31.200Z,34.50
2022-12-09T21:11:35.274Z,36.15
2022-12-09T21:14:38.305Z,32.63
2022-12-09T21:17:41.218Z,30.40
2022-12-09T21:20:44.778Z,25.88
2022-12-09T21:23:50.350Z,28.55
2022-12-09T21:26:55.615Z,27.23
2022-12-09T21:29:58.360Z,29.02
2022-12-09T21:33:01.051Z,30.75
2022-12-09T21:36:10.821Z,27.80
2022-12-09T21:39:15.172Z,27.00
2022-12-09T21:42:17.990Z,27.33
2022-12-09T21:45:20.868Z,28.63
2022-12-09T21:48:23.032Z,28.77
2022-12-09T21:51:26.386Z,30.38
2022-12-09T21:54:28.933Z,32.63
2022-12-09T21:57:34.078Z,32.65
2022-12-09T22:00:38.157Z,34.90
2022-12-09T22:03:40.547Z,100.43
2022-12-09T22:06:46.726Z,83.13
2022-12-09T22:09:49.539Z,61.05
2022-12-09T22:12:51.568Z,37.00
2022-12-09T22:15:53.832Z,40.60
2022-12-09T22:18:57.731Z,36.88
2022-12-09T22:22:03.435Z,38.33
2022-12-09T22:25:09.883Z,37.28
2022-12-09T22:28:11.938Z,37.28
2022-12-09T22:31:20.572Z,37.13
2022-12-09T22:34:22.659Z,38.35
2022-12-09T22:37:43.057Z,38.38
2022-12-09T22:40:45.843Z,39.45
2022-12-09T22:43:49.955Z,39.97
2022-12-09T22:46:52.091Z,44.53
2022-12-09T22:49:54.173Z,37.30
2022-12-09T22:52:56.258Z,36.75
2022-12-09T22:55:58.319Z,36.45
2022-12-09T22:59:00.620Z,37.53
2022-12-09T23:02:02.734Z,37.10
2022-12-09T23:05:06.634Z,35.83
2022-12-09T23:08:08.882Z,35.15
2022-12-09T23:11:17.533Z,35.10
2022-12-09T23:14:20.034Z,35.78
2022-12-09T23:17:22.061Z,34.75
2022-12-09T23:20:24.485Z,33.10
2022-12-09T23:23:26.515Z,30.45
2022-12-09T23:26:31.528Z,26.80
2022-12-09T23:29:33.867Z,25.63
2022-12-09T23:32:36.000Z,24.90
2022-12-09T23:35:38.945Z,25.08
2022-12-09T23:38:41.580Z,26.27
2022-12-09T23:41:44.574Z,26.02
2022-12-09T23:44:46.578Z,27.17
2022-12-09T23:47:48.590Z,28.98
2022-12-09T23:50:50.663Z,28.77
2022-12-09T23:53:56.252Z,28.88
2022-12-09T23:56:58.603Z,28.67
